EPKT

Katowice International Airport

Katowice, Poland
METAR EPKT 161830Z 22011KT 8000 SCT036 OVC040 03/00 Q1008
Observed Flight Rules
Jan-16 @ 18:30 UTC (11 minutes ago) Marginal Visual Flight Rules
Wind Visibility Clouds
220° at 11 knots 7,998 meters
  • Scattered at 3,600' AGL
  • Overcast at 4,000' AGL
Temperatures Readings
Current 3°C / 37°F
Dewpoint 0°C / 32°F
Humidity 81%
Altimeter 29.76" Hg
Pressure 1007.92 hPa
Elevation 284
METAR EPKT 161830Z 22011KT 8000 SCT036 OVC040 03/00 Q1008
Observed Flight Rules
Jan-16 @ 18:30 UTC
(11 minutes ago)
MVFR
Wind Visibility
220° at 11 knots 7,998 meters
Clouds
  • Scattered at 3,600' AGL
  • Overcast at 4,000' AGL
Temperature Dewpoint
3°C / 37°F 0°C / 32°F
Humidity Altimeter Pressure
81% 29.76" Hg 1007.92 hPa